createdAt,value
2023-03-28T00:02:10.979Z,87.41
2023-03-28T00:07:12.578Z,87.63
2023-03-28T00:12:14.169Z,87.81
2023-03-28T00:17:17.894Z,87.12
2023-03-28T00:22:23.194Z,86.42
2023-03-28T00:27:26.103Z,85.48
2023-03-28T00:32:27.852Z,84.59
2023-03-28T00:37:30.020Z,83.97
2023-03-28T00:42:41.886Z,86.46
2023-03-28T00:47:44.711Z,86.26
2023-03-28T00:53:05.297Z,85.82
2023-03-28T00:58:12.825Z,84.46
2023-03-28T01:03:16.182Z,83.15
2023-03-28T01:08:21.512Z,82.83
2023-03-28T01:13:32.765Z,82.86
2023-03-28T01:18:41.532Z,82.38
2023-03-28T01:23:49.354Z,82.23
2023-03-28T01:29:29.525Z,82.17
2023-03-28T01:35:02.426Z,81.58
2023-03-28T01:40:16.354Z,80.67
2023-03-28T01:45:35.647Z,80.52
2023-03-28T01:50:50.425Z,81.68
2023-03-28T01:56:07.978Z,83.07
2023-03-28T02:01:20.309Z,83.66
2023-03-28T02:06:23.570Z,84.03
2023-03-28T02:11:28.602Z,84.36
2023-03-28T02:16:44.540Z,84.51
2023-03-28T02:22:19.161Z,84.42
2023-03-28T02:27:23.947Z,84.13
2023-03-28T02:32:34.200Z,84.51
2023-03-28T02:37:43.281Z,86.32
2023-03-28T02:43:16.983Z,86.00
2023-03-28T02:48:41.870Z,85.88
2023-03-28T02:53:45.972Z,86.54
2023-03-28T02:58:55.528Z,89.68
2023-03-28T03:03:58.455Z,94.00
2023-03-28T03:09:00.904Z,92.43
2023-03-28T03:14:02.817Z,91.13
2023-03-28T03:19:05.242Z,89.74
2023-03-28T03:24:09.813Z,88.03
2023-03-28T03:29:14.179Z,88.03
2023-03-28T03:34:16.174Z,90.78
2023-03-28T03:39:23.502Z,98.39
2023-03-28T03:44:25.821Z,100.00
2023-03-28T03:49:28.466Z,100.00
2023-03-28T03:54:31.352Z,100.00
2023-03-28T03:59:34.088Z,100.00
2023-03-28T04:04:37.050Z,100.00
2023-03-28T04:09:48.652Z,100.00
2023-03-28T04:14:50.720Z,100.00
2023-03-28T04:20:19.317Z,100.00
2023-03-28T04:25:41.943Z,100.00
2023-03-28T04:30:54.756Z,100.00
2023-03-28T04:36:31.954Z,100.00
2023-03-28T04:41:39.010Z,100.00
2023-03-28T04:47:01.031Z,99.04
2023-03-28T04:52:02.793Z,98.07
2023-03-28T04:57:05.028Z,97.56
2023-03-28T05:02:17.082Z,97.30
2023-03-28T05:07:26.369Z,97.85
2023-03-28T05:12:29.146Z,97.17
2023-03-28T05:17:41.114Z,95.10
2023-03-28T05:22:53.264Z,94.06
2023-03-28T05:27:54.909Z,92.63
2023-03-28T05:32:57.045Z,90.49
2023-03-28T05:37:59.000Z,90.33
2023-03-28T05:43:00.977Z,89.62
2023-03-28T05:48:08.153Z,87.86
2023-03-28T05:53:11.487Z,86.66
2023-03-28T05:58:14.237Z,83.55
2023-03-28T06:03:17.428Z,82.79
2023-03-28T06:08:20.691Z,82.98
2023-03-28T06:13:22.968Z,83.76
2023-03-28T06:18:25.979Z,83.57
2023-03-28T06:23:28.610Z,76.38
2023-03-28T06:28:31.193Z,78.47
2023-03-28T06:33:53.979Z,77.01
2023-03-28T06:38:58.455Z,73.36
2023-03-28T06:44:02.336Z,73.36
2023-03-28T06:49:27.098Z,75.60
2023-03-28T06:54:56.306Z,76.13
2023-03-28T06:59:59.866Z,76.31
2023-03-28T07:05:16.817Z,77.15
2023-03-28T07:10:20.591Z,77.20
2023-03-28T07:15:22.630Z,75.63
2023-03-28T07:20:26.038Z,73.72
2023-03-28T07:25:29.125Z,67.84
2023-03-28T07:30:31.293Z,67.11
2023-03-28T07:35:33.005Z,70.78
2023-03-28T07:40:34.953Z,72.98
2023-03-28T07:45:37.363Z,70.97
2023-03-28T07:50:39.061Z,65.83
2023-03-28T07:55:54.529Z,67.67
2023-03-28T08:01:06.094Z,63.48
2023-03-28T08:06:31.755Z,57.86
2023-03-28T08:11:36.657Z,55.03
2023-03-28T08:16:38.788Z,51.90
2023-03-28T08:21:41.116Z,54.75
2023-03-28T08:26:42.943Z,52.62
2023-03-28T08:31:45.974Z,50.06
2023-03-28T08:36:49.254Z,49.75
2023-03-28T08:42:21.633Z,48.88
2023-03-28T08:47:33.088Z,53.98
2023-03-28T08:52:36.057Z,51.67
2023-03-28T08:57:41.072Z,53.02
2023-03-28T09:02:44.109Z,53.23
2023-03-28T09:08:22.705Z,50.73
2023-03-28T09:13:33.716Z,46.01
2023-03-28T09:19:03.343Z,49.36
2023-03-28T09:24:28.647Z,43.43
2023-03-28T09:29:47.285Z,46.46
2023-03-28T09:34:51.264Z,44.71
2023-03-28T09:40:00.218Z,47.71
2023-03-28T09:45:18.298Z,47.36
2023-03-28T09:50:29.344Z,46.30
2023-03-28T09:55:35.614Z,43.63
2023-03-28T10:00:43.856Z,44.58
2023-03-28T10:06:27.623Z,45.33
2023-03-28T10:11:29.441Z,42.53
2023-03-28T10:16:32.504Z,42.43
2023-03-28T10:21:52.969Z,43.77
2023-03-28T10:27:12.624Z,41.28
2023-03-28T10:32:25.377Z,46.25
2023-03-28T10:38:03.707Z,44.59
2023-03-28T10:43:15.977Z,42.62
2023-03-28T10:48:33.822Z,44.30
2023-03-28T10:53:52.367Z,41.75
2023-03-28T10:59:07.536Z,41.89
2023-03-28T11:04:18.360Z,44.01
2023-03-28T11:09:36.574Z,42.56
2023-03-28T11:15:02.103Z,44.01
2023-03-28T11:20:26.747Z,45.60
2023-03-28T11:25:56.686Z,44.34
2023-03-28T11:31:24.868Z,42.18
2023-03-28T11:36:47.737Z,42.86
2023-03-28T11:41:53.834Z,46.29
2023-03-28T11:47:10.440Z,44.50
2023-03-28T11:52:36.781Z,41.63
2023-03-28T11:58:19.490Z,46.40
2023-03-28T12:03:25.707Z,45.96
2023-03-28T12:08:45.853Z,43.42
2023-03-28T12:14:11.616Z,40.89
2023-03-28T12:19:33.758Z,42.51
2023-03-28T12:24:47.674Z,41.03
2023-03-28T12:30:20.683Z,43.51
2023-03-28T12:35:37.608Z,43.03
2023-03-28T12:40:56.005Z,42.74
2023-03-28T12:46:03.773Z,43.09
2023-03-28T12:51:18.147Z,43.15
2023-03-28T12:56:21.769Z,45.91
2023-03-28T13:01:35.300Z,43.85
2023-03-28T13:07:18.494Z,43.71
2023-03-28T13:12:48.331Z,46.28
2023-03-28T13:18:22.234Z,49.21
2023-03-28T13:23:47.894Z,49.19
2023-03-28T13:28:54.309Z,47.63
2023-03-28T13:34:02.490Z,48.59
2023-03-28T13:39:22.554Z,47.01
2023-03-28T13:44:39.271Z,48.68
2023-03-28T13:49:48.045Z,46.91
2023-03-28T13:54:54.450Z,49.90
2023-03-28T14:00:02.328Z,48.96
2023-03-28T14:05:22.773Z,48.50
2023-03-28T14:10:33.047Z,45.62
2023-03-28T14:15:39.836Z,45.46
2023-03-28T14:20:43.839Z,48.05
2023-03-28T14:25:45.814Z,48.91
2023-03-28T14:30:47.443Z,48.56
2023-03-28T14:36:04.172Z,49.07
2023-03-28T14:41:07.330Z,49.01
2023-03-28T14:46:10.149Z,50.15
2023-03-28T14:51:13.709Z,49.36
2023-03-28T14:56:22.972Z,50.28
2023-03-28T15:01:26.034Z,50.19
2023-03-28T15:06:29.523Z,51.51
2023-03-28T15:11:35.771Z,52.22
2023-03-28T15:16:42.282Z,53.59
2023-03-28T15:21:53.009Z,53.50
2023-03-28T15:27:01.701Z,55.53
2023-03-28T15:32:16.480Z,55.08
2023-03-28T15:37:24.743Z,54.81
2023-03-28T15:42:34.864Z,56.06
2023-03-28T15:47:36.670Z,57.55
2023-03-28T15:52:42.039Z,57.36
2023-03-28T15:57:47.022Z,59.40
2023-03-28T16:02:49.064Z,61.32
2023-03-28T16:07:50.862Z,61.12
2023-03-28T16:12:52.510Z,61.98
2023-03-28T16:18:22.286Z,62.43
2023-03-28T16:23:30.370Z,65.05
2023-03-28T16:28:32.060Z,69.04
2023-03-28T16:33:33.744Z,68.86
2023-03-28T16:38:35.519Z,68.54
2023-03-28T16:43:37.962Z,69.15
2023-03-28T16:48:39.584Z,70.28
2023-03-28T16:53:41.385Z,69.86
2023-03-28T16:58:43.114Z,69.78
2023-03-28T17:03:49.053Z,70.15
2023-03-28T17:08:53.249Z,68.98
2023-03-28T17:13:55.392Z,69.19
2023-03-28T17:18:57.012Z,69.07
2023-03-28T17:23:58.623Z,69.29
2023-03-28T17:29:00.320Z,69.50
2023-03-28T17:34:02.077Z,69.58
2023-03-28T17:39:04.014Z,70.55
2023-03-28T17:44:06.656Z,71.79
2023-03-28T17:49:08.550Z,72.25
2023-03-28T17:54:12.133Z,74.18
2023-03-28T17:59:13.828Z,76.52
2023-03-28T18:04:16.884Z,77.84
2023-03-28T18:09:41.063Z,77.96
2023-03-28T18:14:43.309Z,78.19
2023-03-28T18:19:44.909Z,78.13
2023-03-28T18:24:46.514Z,80.06
2023-03-28T18:29:49.318Z,79.40
2023-03-28T18:34:50.935Z,80.88
2023-03-28T18:39:52.919Z,81.12
2023-03-28T18:44:54.520Z,82.67
2023-03-28T18:49:56.132Z,84.98
2023-03-28T18:54:57.935Z,84.85
2023-03-28T18:59:59.550Z,85.51
2023-03-28T19:05:01.135Z,86.44
2023-03-28T19:10:03.726Z,86.43
2023-03-28T19:15:06.664Z,87.42
2023-03-28T19:20:12.807Z,88.74
2023-03-28T19:25:14.514Z,89.93
2023-03-28T19:30:16.247Z,88.91
2023-03-28T19:35:17.842Z,88.35
2023-03-28T19:40:19.445Z,88.50
2023-03-28T19:45:21.041Z,89.53
2023-03-28T19:50:23.121Z,88.98
2023-03-28T19:55:24.757Z,90.38
2023-03-28T20:00:26.434Z,91.05
2023-03-28T20:05:28.101Z,91.93
2023-03-28T20:10:29.720Z,91.37
2023-03-28T20:15:32.245Z,92.98
2023-03-28T20:20:33.879Z,92.30
2023-03-28T20:25:36.035Z,91.99
2023-03-28T20:30:38.022Z,93.17
2023-03-28T20:35:41.931Z,94.54
2023-03-28T20:40:43.615Z,94.54
2023-03-28T20:45:49.934Z,93.04
2023-03-28T20:50:53.966Z,93.07
2023-03-28T20:56:04.054Z,94.50
2023-03-28T21:01:07.623Z,94.43
2023-03-28T21:06:09.270Z,93.61
2023-03-28T21:11:12.306Z,95.81
2023-03-28T21:16:14.842Z,95.34
2023-03-28T21:21:19.056Z,94.06
2023-03-28T21:26:22.888Z,95.16
2023-03-28T21:31:28.134Z,94.71
2023-03-28T21:36:30.378Z,95.00
2023-03-28T21:41:32.022Z,94.88
2023-03-28T21:46:33.715Z,95.65
2023-03-28T21:51:36.083Z,95.29
2023-03-28T21:56:37.811Z,95.33
2023-03-28T22:01:39.522Z,96.35
2023-03-28T22:06:41.141Z,96.03
2023-03-28T22:11:43.627Z,96.17
2023-03-28T22:16:45.470Z,96.29
2023-03-28T22:21:48.711Z,96.66
2023-03-28T22:26:50.389Z,97.34
2023-03-28T22:31:52.087Z,96.31
2023-03-28T22:36:54.981Z,96.34
2023-03-28T22:41:56.608Z,94.62
2023-03-28T22:47:02.270Z,93.43
2023-03-28T22:52:04.886Z,92.12
2023-03-28T22:57:07.096Z,92.25
2023-03-28T23:02:08.849Z,93.56
2023-03-28T23:07:12.504Z,94.12
2023-03-28T23:12:14.190Z,94.36
2023-03-28T23:17:15.785Z,93.94
2023-03-28T23:22:17.468Z,94.68
2023-03-28T23:27:19.750Z,93.80
2023-03-28T23:32:21.322Z,93.58
2023-03-28T23:37:26.121Z,93.60
2023-03-28T23:42:27.773Z,93.60
2023-03-28T23:47:29.402Z,93.02
2023-03-28T23:52:31.349Z,94.01
2023-03-28T23:57:33.076Z,94.90
